Time;durP1;ratioP1;P1;durP2;ratioP2;P2;SDS_P1;SDS_P2;PMS_P1;PMS_P2;Temp;Humidity;BMP_temperature;BMP_pressure;BME280_temperature;BME280_humidity;BME280_pressure;Samples;Min_cycle;Max_cycle;Signal;HPM_P1;HPM_P2
2024/04/10 00:01:24;;;;;;;5.90;4.03;;;;;;;11.18;67.84;101188.19;5280004;27;20231;-75
2024/04/10 00:03:49;;;;;;;7.23;3.60;;;;;;;11.50;67.16;101187.75;5279555;27;20336;-75
2024/04/10 00:06:14;;;;;;;7.03;3.67;;;;;;;11.38;67.63;101183.25;5279058;27;20571;-76
2024/04/10 00:08:39;;;;;;;6.17;4.33;;;;;;;11.22;68.19;101181.28;5278315;27;20351;-76
2024/04/10 00:11:06;;;;;;;5.17;3.80;;;;;;;11.60;67.58;101178.28;5278197;27;20228;-76
2024/04/10 00:13:32;;;;;;;6.37;4.07;;;;;;;11.12;67.49;101178.53;5275483;27;20239;-76
2024/04/10 00:16:07;;;;;;;7.27;4.00;;;;;;;11.79;67.46;101177.66;5260027;27;20538;-76
2024/04/10 00:18:35;;;;;;;5.70;3.60;;;;;;;11.12;67.85;101175.03;5263703;27;20440;-76
2024/04/10 00:21:00;;;;;;;4.43;3.90;;;;;;;11.43;68.64;101178.06;5245126;27;20470;-76
2024/04/10 00:23:25;;;;;;;4.93;3.70;;;;;;;11.61;67.29;101180.06;5268962;27;20801;-76
2024/04/10 00:25:57;;;;;;;5.50;4.17;;;;;;;11.74;66.60;101187.16;5278575;27;20239;-76
2024/04/10 00:28:22;;;;;;;5.13;4.03;;;;;;;11.67;67.06;101195.78;5277948;27;20224;-75
2024/04/10 00:30:48;;;;;;;4.83;3.70;;;;;;;11.91;66.18;101208.28;5277678;27;20471;-77
2024/04/10 00:33:13;;;;;;;5.57;4.40;;;;;;;11.38;67.11;101204.13;5276464;27;20274;-76
2024/04/10 00:35:39;;;;;;;5.03;4.17;;;;;;;10.95;69.13;101204.34;5278289;27;20235;-77
2024/04/10 00:38:04;;;;;;;4.47;4.07;;;;;;;11.33;68.90;101197.09;5278367;27;20215;-76
2024/04/10 00:40:29;;;;;;;12.60;6.07;;;;;;;11.48;68.15;101199.91;5277350;27;20281;-76
2024/04/10 00:42:55;;;;;;;5.90;4.10;;;;;;;11.41;67.74;101212.00;5276438;27;20253;-76
2024/04/10 00:45:22;;;;;;;7.33;4.20;;;;;;;11.52;67.54;101213.88;5278609;27;20285;-76
2024/04/10 00:47:48;;;;;;;7.23;4.50;;;;;;;11.12;67.81;101219.38;5277711;27;20671;-77
2024/04/10 00:50:13;;;;;;;6.10;4.17;;;;;;;11.26;67.70;101224.84;5278076;27;20446;-76
2024/04/10 00:52:38;;;;;;;5.47;4.17;;;;;;;11.26;68.44;101219.63;5278027;27;20510;-76
2024/04/10 00:55:04;;;;;;;6.73;4.17;;;;;;;11.56;66.93;101226.97;5276179;27;20259;-76
2024/04/10 00:57:29;;;;;;;11.50;4.03;;;;;;;11.02;67.85;101234.03;5275990;27;20521;-76
2024/04/10 00:59:55;;;;;;;5.63;4.37;;;;;;;11.32;68.17;101231.88;5276655;27;20223;-76
2024/04/10 01:02:20;;;;;;;6.87;3.93;;;;;;;11.19;68.15;101230.78;5278003;27;20333;-76
2024/04/10 01:04:45;;;;;;;5.97;4.00;;;;;;;11.66;67.44;101230.59;5277529;27;20587;-76
2024/04/10 01:07:11;;;;;;;9.10;5.73;;;;;;;11.08;68.19;101246.28;5277098;27;20227;-76
2024/04/10 01:09:37;;;;;;;5.20;4.20;;;;;;;11.29;67.79;101238.78;5277771;27;20750;-75
2024/04/10 01:12:03;;;;;;;5.93;4.20;;;;;;;11.50;67.13;101245.19;5277947;27;20220;-75
2024/04/10 01:14:28;;;;;;;8.67;4.80;;;;;;;11.42;67.57;101247.69;5278425;27;20506;-76
2024/04/10 01:16:53;;;;;;;6.63;4.03;;;;;;;11.18;68.05;101242.13;5278183;27;20430;-76
2024/04/10 01:19:19;;;;;;;11.70;5.27;;;;;;;11.44;67.28;101239.88;5277799;27;20701;-75
2024/04/10 01:21:46;;;;;;;9.30;4.50;;;;;;;11.71;66.89;101239.38;5277629;27;20243;-76
2024/04/10 01:24:11;;;;;;;8.43;4.93;;;;;;;11.27;66.81;101250.06;5278219;27;20454;-76
2024/04/10 01:26:36;;;;;;;10.60;6.20;;;;;;;11.76;66.50;101248.16;5278104;27;20642;-75
2024/04/10 01:29:01;;;;;;;10.50;7.73;;;;;;;11.99;65.82;101254.53;5277464;27;20708;-76
2024/04/10 01:31:30;;;;;;;8.63;5.07;;;;;;;11.74;66.44;101267.25;5277856;27;20219;-75
2024/04/10 01:33:55;;;;;;;8.43;4.63;;;;;;;11.56;67.11;101265.28;5277975;27;20266;-75
2024/04/10 01:36:21;;;;;;;7.30;4.73;;;;;;;11.77;66.34;101273.41;5277863;27;20470;-75
2024/04/10 01:38:47;;;;;;;7.00;4.73;;;;;;;11.89;65.85;101263.97;5279361;27;20732;-75
2024/04/10 01:41:12;;;;;;;7.37;4.43;;;;;;;11.46;66.99;101274.72;5278961;27;20253;-75
2024/04/10 01:43:37;;;;;;;7.00;4.70;;;;;;;11.55;66.64;101268.75;5277035;27;20588;-76
2024/04/10 01:46:02;;;;;;;5.97;4.60;;;;;;;11.71;66.78;101275.94;5278333;27;20767;-76
2024/04/10 01:48:28;;;;;;;7.03;4.60;;;;;;;11.25;67.53;101283.09;5277466;27;20235;-74
2024/04/10 01:50:53;;;;;;;6.90;4.87;;;;;;;11.64;66.73;101287.16;5277529;27;20231;-76
2024/04/10 01:53:18;;;;;;;7.67;4.90;;;;;;;11.22;68.38;101296.13;5278398;27;20239;-76
2024/04/10 01:55:44;;;;;;;6.00;4.27;;;;;;;11.35;68.04;101292.84;5277817;27;20231;-76
2024/04/10 01:58:10;;;;;;;8.80;4.40;;;;;;;11.23;67.97;101290.00;5277848;27;20269;-76
2024/04/10 02:00:35;;;;;;;7.50;4.47;;;;;;;11.28;68.25;101302.31;5277938;27;20226;-75
2024/04/10 02:03:01;;;;;;;8.77;5.27;;;;;;;11.10;67.79;101294.19;5276204;27;20495;-76
2024/04/10 02:05:26;;;;;;;9.10;4.33;;;;;;;11.47;67.81;101289.50;5277886;27;20349;-76
2024/04/10 02:07:51;;;;;;;5.10;4.00;;;;;;;11.87;66.64;101281.38;5278033;27;20231;-76
2024/04/10 02:10:16;;;;;;;5.90;4.67;;;;;;;11.25;67.39;101303.97;5280317;27;20282;-75
2024/04/10 02:12:42;;;;;;;7.07;4.63;;;;;;;11.18;68.02;101310.84;5280227;27;20235;-75
2024/04/10 02:15:08;;;;;;;9.40;4.60;;;;;;;11.39;68.07;101327.69;5280924;27;20348;-76
2024/04/10 02:17:34;;;;;;;7.90;4.47;;;;;;;11.02;68.84;101306.22;5280148;27;20219;-75
2024/04/10 02:19:59;;;;;;;8.77;4.23;;;;;;;11.51;67.81;101306.97;5279379;27;20618;-75
2024/04/10 02:22:24;;;;;;;6.57;4.80;;;;;;;11.12;68.94;101314.22;5277389;27;20235;-77
2024/04/10 02:24:55;;;;;;;7.40;5.03;;;;;;;11.18;70.37;101341.28;5277119;27;20350;-75
2024/04/10 02:27:20;;;;;;;9.80;5.27;;;;;;;11.53;70.15;101333.13;5277093;27;20333;-76
2024/04/10 02:29:45;;;;;;;7.00;5.33;;;;;;;11.27;71.32;101341.41;5275569;27;20470;-75
2024/04/10 02:32:11;;;;;;;6.70;4.57;;;;;;;11.68;70.58;101349.03;5277236;27;20215;-76
2024/04/10 02:34:36;;;;;;;8.27;4.40;;;;;;;10.98;71.38;101347.03;5276981;27;20360;-75
2024/04/10 02:37:03;;;;;;;5.10;4.27;;;;;;;11.20;70.31;101366.53;5277095;27;20287;-76
2024/04/10 02:39:28;;;;;;;6.70;4.30;;;;;;;11.13;70.17;101367.28;5275075;27;20301;-76
2024/04/10 02:41:53;;;;;;;10.30;4.10;;;;;;;11.30;70.33;101372.81;5276947;27;20462;-76
2024/04/10 02:44:19;;;;;;;7.57;4.00;;;;;;;11.66;69.08;101363.78;5276414;27;20588;-76
2024/04/10 02:46:44;;;;;;;8.27;3.90;;;;;;;11.35;69.67;101380.69;5276854;27;20235;-76
2024/04/10 02:49:09;;;;;;;6.33;3.60;;;;;;;11.34;69.61;101385.06;5276212;27;20259;-75
2024/04/10 02:51:35;;;;;;;4.50;3.63;;;;;;;11.22;69.38;101384.84;5276870;27;20235;-75
2024/04/10 02:54:00;;;;;;;7.17;4.20;;;;;;;11.54;68.53;101394.94;5276586;27;20669;-75
2024/04/10 02:56:25;;;;;;;4.53;2.97;;;;;;;11.08;68.65;101406.34;5274811;27;20262;-76
2024/04/10 02:58:51;;;;;;;4.87;3.30;;;;;;;10.97;69.12;101414.81;5276952;27;20705;-75
2024/04/10 03:01:16;;;;;;;6.43;3.10;;;;;;;11.26;67.75;101429.28;5276690;27;20234;-76
2024/04/10 03:03:42;;;;;;;5.20;3.30;;;;;;;11.45;67.49;101425.25;5276594;27;20223;-76
2024/04/10 03:06:08;;;;;;;8.90;3.67;;;;;;;11.14;67.06;101439.50;5276943;27;20231;-75
2024/04/10 03:08:35;;;;;;;4.17;2.93;;;;;;;11.46;66.48;101442.69;5276483;27;20294;-76
2024/04/10 03:11:01;;;;;;;4.27;2.83;;;;;;;11.75;65.30;101430.97;5275941;27;20430;-76
2024/04/10 03:13:26;;;;;;;6.60;3.30;;;;;;;11.57;65.18;101434.19;5276405;27;20438;-75
2024/04/10 03:15:52;;;;;;;4.00;2.80;;;;;;;11.44;66.14;101436.56;5276568;27;20574;-76
2024/04/10 03:18:18;;;;;;;7.13;3.30;;;;;;;11.58;65.52;101443.75;5276163;27;20827;-75
2024/04/10 03:20:43;;;;;;;5.70;2.53;;;;;;;11.63;64.61;101435.13;5276732;27;20814;-76
2024/04/10 03:23:09;;;;;;;4.77;2.60;;;;;;;11.83;64.86;101447.66;5276405;27;20750;-76
2024/04/10 03:25:34;;;;;;;6.43;3.47;;;;;;;11.86;64.04;101439.84;5278102;27;20620;-75
2024/04/10 03:28:00;;;;;;;3.07;2.50;;;;;;;11.51;64.51;101452.34;5277176;27;20220;-75
2024/04/10 03:30:26;;;;;;;4.37;2.30;;;;;;;11.27;65.04;101470.22;5279398;27;20227;-75
2024/04/10 03:32:52;;;;;;;4.97;2.67;;;;;;;11.42;64.59;101467.00;5279701;27;20219;-76
2024/04/10 03:35:18;;;;;;;6.67;3.20;;;;;;;11.57;64.75;101473.34;5279924;27;20980;-75
2024/04/10 03:37:44;;;;;;;6.53;3.20;;;;;;;11.55;64.95;101486.34;5279969;27;20227;-75
2024/04/10 03:40:09;;;;;;;8.70;2.53;;;;;;;11.49;65.03;101493.19;5279849;27;21089;-76
2024/04/10 03:42:34;;;;;;;4.13;2.30;;;;;;;10.97;66.34;101488.75;5279353;27;20227;-75
2024/04/10 03:45:00;;;;;;;4.40;2.60;;;;;;;10.68;67.45;101506.44;5277653;27;20321;-75
2024/04/10 03:47:25;;;;;;;4.30;2.40;;;;;;;11.18;65.82;101510.91;5279464;27;20757;-75
2024/04/10 03:49:50;;;;;;;3.67;2.40;;;;;;;11.23;66.11;101504.94;5279127;27;20261;-75
2024/04/10 03:52:16;;;;;;;4.40;2.40;;;;;;;10.88;66.95;101493.78;5279265;27;20775;-75
2024/04/10 03:54:41;;;;;;;4.37;2.57;;;;;;;10.65;67.33;101491.59;5279154;27;20236;-76
2024/04/10 03:57:07;;;;;;;4.87;2.47;;;;;;;11.03;66.94;101493.22;5279472;27;20495;-75
2024/04/10 03:59:32;;;;;;;5.90;3.00;;;;;;;11.03;66.55;101499.31;5279173;27;20224;-76
2024/04/10 04:01:57;;;;;;;4.67;2.60;;;;;;;11.17;66.05;101496.97;5279387;27;20607;-75
2024/04/10 04:04:23;;;;;;;4.67;2.70;;;;;;;10.93;66.93;101507.78;5279317;27;20274;-76
2024/04/10 04:06:48;;;;;;;4.50;2.90;;;;;;;11.16;66.32;101502.16;5279383;27;20231;-76
2024/04/10 04:09:13;;;;;;;4.00;2.50;;;;;;;11.06;65.67;101503.72;5278879;27;20224;-75
2024/04/10 04:11:39;;;;;;;4.97;2.87;;;;;;;10.86;66.82;101511.13;5279225;27;20228;-76
2024/04/10 04:14:04;;;;;;;6.37;2.37;;;;;;;11.25;66.01;101520.63;5279121;27;20713;-76
2024/04/10 04:16:30;;;;;;;6.03;2.43;;;;;;;11.35;66.15;101524.28;5279178;27;20329;-75
2024/04/10 04:18:55;;;;;;;6.50;2.60;;;;;;;11.02;66.12;101530.59;5278915;27;20219;-75
2024/04/10 04:21:21;;;;;;;5.00;3.13;;;;;;;11.35;65.53;101534.72;5278181;27;20473;-75
2024/04/10 04:23:46;;;;;;;6.07;2.63;;;;;;;11.34;65.93;101538.19;5278478;27;20290;-75
2024/04/10 04:26:11;;;;;;;5.10;2.83;;;;;;;11.10;65.98;101542.94;5279237;27;20258;-76
2024/04/10 04:28:37;;;;;;;5.47;2.90;;;;;;;10.86;67.03;101560.69;5278565;27;20713;-76
2024/04/10 04:31:03;;;;;;;4.40;3.30;;;;;;;10.83;67.82;101576.28;5279047;27;20227;-76
2024/04/10 04:33:28;;;;;;;5.73;2.67;;;;;;;10.97;67.45;101572.22;5279012;27;20426;-75
2024/04/10 04:35:53;;;;;;;7.47;3.00;;;;;;;11.19;67.72;101576.19;5278559;27;20269;-76
2024/04/10 04:38:18;;;;;;;5.40;3.47;;;;;;;11.21;68.81;101587.53;5278733;27;20223;-76
2024/04/10 04:40:44;;;;;;;4.30;2.93;;;;;;;11.43;68.87;101588.88;5280086;27;20577;-76
2024/04/10 04:43:09;;;;;;;3.97;2.50;;;;;;;11.36;70.36;101600.00;5279181;27;20342;-76
2024/04/10 04:45:35;;;;;;;10.23;5.10;;;;;;;11.05;71.95;101624.59;5278721;27;20243;-76
2024/04/10 04:48:01;;;;;;;3.30;2.93;;;;;;;10.96;73.36;101633.13;5278452;27;20227;-76
2024/04/10 04:50:26;;;;;;;7.80;3.30;;;;;;;11.02;73.87;101625.41;5278637;27;20555;-76
2024/04/10 04:52:52;;;;;;;4.57;2.87;;;;;;;10.78;74.58;101633.56;5279523;27;20236;-75
2024/04/10 04:55:18;;;;;;;6.07;3.60;;;;;;;11.07;73.87;101643.78;5291729;22;20624;-76
2024/04/10 04:57:44;;;;;;;4.93;2.90;;;;;;;11.23;72.89;101644.97;5277546;27;20231;-76
2024/04/10 05:00:14;;;;;;;4.50;2.80;;;;;;;10.76;73.89;101656.13;5247994;27;20494;-75
2024/04/10 05:02:39;;;;;;;5.50;3.13;;;;;;;11.10;73.20;101656.91;5247918;27;20227;-74
2024/04/10 05:05:11;;;;;;;6.47;3.00;;;;;;;11.13;73.19;101672.63;5278531;27;20466;-76
2024/04/10 05:07:37;;;;;;;4.10;2.93;;;;;;;10.87;73.27;101679.84;5278834;27;20725;-77
2024/04/10 05:10:03;;;;;;;5.23;2.90;;;;;;;10.60;74.05;101688.78;5277514;27;20849;-76
2024/04/10 05:12:28;;;;;;;6.20;2.90;;;;;;;11.12;73.30;101697.84;5248273;27;20451;-75
2024/04/10 05:14:53;;;;;;;7.00;3.10;;;;;;;10.70;74.01;101708.13;5277150;27;20741;-75
2024/04/10 05:17:19;;;;;;;8.07;3.00;;;;;;;10.70;74.03;101719.47;5277362;27;20268;-74
2024/04/10 05:19:45;;;;;;;3.10;2.43;;;;;;;10.50;73.08;101731.09;5277667;27;20224;-74
2024/04/10 05:22:10;;;;;;;4.90;3.80;;;;;;;10.59;73.83;101729.63;5276949;27;20239;-74
2024/04/10 05:24:36;;;;;;;6.30;3.50;;;;;;;10.62;74.55;101744.44;5277675;27;20273;-76
2024/04/10 05:27:05;;;;;;;8.13;3.47;;;;;;;10.45;75.48;101746.63;5246882;27;20724;-76
2024/04/10 05:29:31;;;;;;;8.70;3.17;;;;;;;10.42;75.77;101742.22;5277770;27;20227;-75
2024/04/10 05:31:58;;;;;;;6.37;3.67;;;;;;;10.91;74.34;101744.31;5277797;27;20462;-75
2024/04/10 05:34:23;;;;;;;7.83;2.97;;;;;;;10.56;73.89;101737.34;5277431;27;20219;-74
2024/04/10 05:36:49;;;;;;;68.57;29.80;;;;;;;11.29;72.98;101747.78;5278028;27;21055;-77
2024/04/10 05:39:33;;;;;;;10.47;4.83;;;;;;;11.11;71.39;101750.88;5250390;27;20227;-74
2024/04/10 05:42:05;;;;;;;6.70;3.20;;;;;;;10.76;71.17;101766.53;5249254;27;20430;-75
2024/04/10 05:44:30;;;;;;;7.90;3.43;;;;;;;10.94;70.09;101771.31;5247667;27;20449;-74
2024/04/10 05:46:55;;;;;;;9.47;3.33;;;;;;;11.12;69.27;101777.84;5277599;27;20572;-75
2024/04/10 05:49:20;;;;;;;9.60;3.47;;;;;;;10.86;69.33;101795.47;5277273;27;20235;-75
2024/04/10 05:51:46;;;;;;;3.50;2.63;;;;;;;11.29;68.16;101794.78;5275984;27;20631;-75
2024/04/10 05:54:11;;;;;;;33.70;8.53;;;;;;;11.35;68.11;101801.91;5277060;27;20269;-76
2024/04/10 05:56:36;;;;;;;19.90;5.50;;;;;;;11.28;68.31;101810.41;5247989;27;20239;-76
2024/04/10 05:59:02;;;;;;;12.40;4.40;;;;;;;10.86;68.40;101808.50;5276295;27;20219;-75
2024/04/10 06:01:27;;;;;;;10.80;4.60;;;;;;;10.41;69.17;101821.25;5247706;27;20227;-76
2024/04/10 06:03:52;;;;;;;7.23;3.53;;;;;;;10.58;68.11;101836.47;5278057;27;20269;-76
2024/04/10 06:06:17;;;;;;;12.87;3.20;;;;;;;10.81;67.88;101820.56;5253643;27;20314;-74
2024/04/10 06:08:43;;;;;;;6.50;3.00;;;;;;;11.10;67.51;101834.34;5258019;27;20243;-76
2024/04/10 06:11:09;;;;;;;7.50;3.50;;;;;;;11.21;67.03;101832.88;5282061;27;20697;-77
2024/04/10 06:13:34;;;;;;;9.40;3.60;;;;;;;11.27;66.69;101842.59;5278351;27;20257;-76
2024/04/10 06:16:03;;;;;;;9.47;3.80;;;;;;;11.27;66.38;101840.88;5277498;27;20435;-76
2024/04/10 06:18:29;;;;;;;7.03;3.80;;;;;;;11.27;66.33;101847.81;5276723;27;20263;-75
2024/04/10 06:21:02;;;;;;;6.67;2.90;;;;;;;11.04;66.25;101853.34;5276652;27;20550;-75
2024/04/10 06:23:29;;;;;;;6.93;2.97;;;;;;;11.16;66.40;101864.94;5276467;27;20321;-76
2024/04/10 06:25:55;;;;;;;6.90;3.20;;;;;;;11.32;65.56;101880.13;5276594;27;20462;-75
2024/04/10 06:28:20;;;;;;;5.53;2.40;;;;;;;11.27;66.28;101868.69;5276282;27;20821;-75
2024/04/10 06:30:46;;;;;;;7.30;2.90;;;;;;;11.42;65.17;101876.91;5246885;27;20604;-76
2024/04/10 06:33:14;;;;;;;9.30;3.37;;;;;;;11.79;65.51;101877.78;5276464;27;20223;-76
2024/04/10 06:35:40;;;;;;;5.40;2.90;;;;;;;11.51;65.27;101883.19;5276275;27;20278;-76
2024/04/10 06:38:06;;;;;;;20.00;10.43;;;;;;;11.48;65.34;101875.31;5276384;27;20443;-74
2024/04/10 06:40:31;;;;;;;8.63;3.57;;;;;;;11.48;65.54;101893.59;5246126;27;20644;-75
2024/04/10 06:42:57;;;;;;;17.30;7.37;;;;;;;11.90;65.27;101895.44;5246413;27;20246;-74
2024/04/10 06:45:22;;;;;;;5.17;2.70;;;;;;;11.61;65.26;101898.25;5276367;27;20235;-76
2024/04/10 06:47:48;;;;;;;7.70;3.37;;;;;;;11.57;65.03;101907.75;5275915;27;20215;-76
2024/04/10 06:50:13;;;;;;;7.27;3.87;;;;;;;11.63;65.38;101900.03;5276524;27;20709;-76
2024/04/10 06:52:39;;;;;;;8.30;3.00;;;;;;;11.77;64.92;101900.38;5246255;27;20231;-76
2024/04/10 06:55:05;;;;;;;7.90;3.03;;;;;;;11.88;64.39;101911.09;5275788;27;20273;-76
2024/04/10 06:57:31;;;;;;;14.03;3.80;;;;;;;12.21;63.32;101924.91;5275846;27;20223;-75
2024/04/10 06:59:58;;;;;;;10.27;4.00;;;;;;;12.09;63.97;101925.50;5275863;27;20454;-76
2024/04/10 07:02:24;;;;;;;9.30;3.27;;;;;;;12.70;63.30;101919.81;5277514;27;20227;-75
2024/04/10 07:04:49;;;;;;;10.43;4.03;;;;;;;11.98;63.70;101932.25;5249247;27;20524;-76
2024/04/10 07:07:15;;;;;;;10.17;4.10;;;;;;;12.08;64.29;101940.34;5278981;27;20450;-76
2024/04/10 07:09:40;;;;;;;15.60;6.57;;;;;;;11.84;64.24;101944.94;5279245;27;20231;-74
2024/04/10 07:12:06;;;;;;;9.93;3.30;;;;;;;11.61;64.42;101945.28;5279342;27;20337;-74
2024/04/10 07:14:36;;;;;;;6.07;3.40;;;;;;;12.06;64.13;101947.25;5278626;27;20231;-75
2024/04/10 07:17:04;;;;;;;8.40;3.00;;;;;;;12.24;63.50;101943.28;5279296;27;20290;-78
2024/04/10 07:19:34;;;;;;;8.23;3.87;;;;;;;12.03;63.71;101947.19;5279103;27;20466;-75
2024/04/10 07:21:59;;;;;;;4.20;3.30;;;;;;;12.49;62.96;101957.78;5278738;27;20446;-75
2024/04/10 07:24:25;;;;;;;11.30;3.77;;;;;;;12.66;61.35;101958.09;5278862;27;20609;-75
2024/04/10 07:26:50;;;;;;;8.43;3.80;;;;;;;12.73;61.94;101973.09;5278529;27;20219;-76
2024/04/10 07:29:15;;;;;;;10.50;5.50;;;;;;;12.42;61.99;101980.28;5278752;27;20223;-75
2024/04/10 07:31:40;;;;;;;10.20;3.17;;;;;;;12.37;63.12;101983.66;5249576;27;20262;-75
2024/04/10 07:34:06;;;;;;;8.60;2.93;;;;;;;12.15;62.83;101982.28;5279421;27;20303;-76
2024/04/10 07:36:32;;;;;;;8.83;3.60;;;;;;;12.42;62.77;102001.22;5279491;27;20566;-73
2024/04/10 07:38:58;;;;;;;11.57;3.97;;;;;;;12.40;62.72;101999.41;5278730;27;20270;-75
2024/04/10 07:41:24;;;;;;;8.73;3.83;;;;;;;12.88;61.80;102003.94;5278463;27;20498;-77
2024/04/10 07:43:51;;;;;;;5.70;2.67;;;;;;;12.49;62.77;102011.78;5278835;27;20269;-74
2024/04/10 07:46:17;;;;;;;12.67;3.70;;;;;;;12.04;62.96;102014.28;5278429;27;20569;-74
2024/04/10 07:48:47;;;;;;;7.53;4.00;;;;;;;12.29;63.02;102022.72;5279207;27;20527;-75
2024/04/10 07:51:14;;;;;;;10.43;3.77;;;;;;;12.33;62.94;102024.53;5279017;27;20749;-75
2024/04/10 07:53:41;;;;;;;7.93;3.47;;;;;;;11.91;62.98;102026.13;5248422;27;20462;-75
2024/04/10 07:56:08;;;;;;;5.03;2.80;;;;;;;12.48;62.55;102038.81;5278153;27;20501;-75
2024/04/10 07:58:36;;;;;;;6.77;3.40;;;;;;;12.46;61.94;102033.53;5276237;27;20486;-75
2024/04/10 08:01:01;;;;;;;12.30;3.40;;;;;;;12.29;62.23;102041.00;5276687;27;20462;-73
2024/04/10 08:03:28;;;;;;;6.23;3.20;;;;;;;12.51;61.76;102058.06;5249837;27;20494;-76
2024/04/10 08:05:55;;;;;;;8.27;3.37;;;;;;;12.80;60.99;102068.31;5277995;27;20239;-75
2024/04/10 08:08:20;;;;;;;8.17;3.80;;;;;;;12.78;61.05;102063.03;5278443;27;20495;-76
2024/04/10 08:10:47;;;;;;;12.60;3.53;;;;;;;12.70;61.03;102061.97;5278461;27;20442;-74
2024/04/10 08:13:12;;;;;;;6.37;3.27;;;;;;;12.90;60.79;102064.16;5277866;27;20717;-74
2024/04/10 08:15:37;;;;;;;6.50;3.30;;;;;;;13.37;59.54;102061.66;5277535;27;20508;-75
2024/04/10 08:18:04;;;;;;;8.10;3.20;;;;;;;13.30;59.87;102064.97;5277866;27;20227;-76
2024/04/10 08:20:29;;;;;;;10.73;3.40;;;;;;;13.56;58.25;102067.25;5276600;27;20729;-75
2024/04/10 08:22:54;;;;;;;5.80;3.10;;;;;;;13.16;59.75;102082.16;5278245;27;20435;-75
2024/04/10 08:25:19;;;;;;;7.87;3.00;;;;;;;12.74;60.36;102079.50;5248053;27;20235;-75
2024/04/10 08:27:45;;;;;;;13.17;8.00;;;;;;;12.77;60.59;102087.47;5277742;27;20227;-75
2024/04/10 08:30:10;;;;;;;10.60;5.10;;;;;;;13.22;60.24;102084.88;5248984;27;20227;-75
2024/04/10 08:32:36;;;;;;;7.87;3.90;;;;;;;12.62;61.70;102100.16;5277632;27;20243;-76
2024/04/10 08:35:02;;;;;;;7.73;3.10;;;;;;;12.24;61.66;102090.56;5275532;27;20294;-75
2024/04/10 08:37:27;;;;;;;7.87;3.20;;;;;;;13.39;60.35;102096.59;5277872;27;20215;-75
2024/04/10 08:39:52;;;;;;;6.80;3.20;;;;;;;13.05;61.44;102097.63;5278239;27;20606;-75
2024/04/10 08:42:19;;;;;;;7.00;3.30;;;;;;;13.18;59.94;102094.44;5278049;27;20330;-77
2024/04/10 08:44:44;;;;;;;8.20;3.40;;;;;;;13.75;58.69;102110.41;5278538;27;20239;-75
2024/04/10 08:47:10;;;;;;;9.23;3.50;;;;;;;14.12;58.36;102125.03;5276269;27;20794;-74
2024/04/10 08:49:38;;;;;;;14.80;4.73;;;;;;;13.27;59.46;102120.81;5275491;27;20250;-75
2024/04/10 08:52:04;;;;;;;7.50;3.23;;;;;;;13.90;58.77;102112.41;5278174;27;20595;-74
2024/04/10 08:54:32;;;;;;;11.23;5.40;;;;;;;14.10;58.06;102116.28;5276108;27;20474;-75
2024/04/10 08:56:57;;;;;;;22.93;12.30;;;;;;;14.09;56.84;102129.38;5275870;27;20454;-77
2024/04/10 08:59:27;;;;;;;7.37;3.63;;;;;;;14.09;57.08;102127.59;5277019;27;20983;-74
2024/04/10 09:01:54;;;;;;;10.33;3.80;;;;;;;14.26;56.33;102127.00;5277397;27;20227;-75
2024/04/10 09:04:22;;;;;;;8.60;3.10;;;;;;;14.97;56.65;102108.00;5276062;27;20520;-75
2024/04/10 09:06:49;;;;;;;7.37;3.63;;;;;;;14.56;56.08;102133.59;5277349;27;20853;-75
2024/04/10 09:09:22;;;;;;;7.53;3.10;;;;;;;14.92;55.42;102128.03;5277612;27;20442;-76
2024/04/10 09:11:50;;;;;;;7.80;3.40;;;;;;;13.74;54.56;102151.44;5275514;27;20493;-76
2024/04/10 09:14:17;;;;;;;6.70;3.33;;;;;;;13.62;55.76;102140.72;5281748;27;20762;-76
2024/04/10 09:16:43;;;;;;;9.53;4.10;;;;;;;13.28;57.09;102145.25;5282007;27;20574;-75
2024/04/10 09:19:15;;;;;;;9.40;3.37;;;;;;;13.39;57.38;102156.84;5277834;27;20881;-75
2024/04/10 09:21:43;;;;;;;9.87;3.93;;;;;;;13.75;58.40;102162.81;5277338;27;20274;-75
2024/04/10 09:24:09;;;;;;;9.47;3.57;;;;;;;13.52;59.14;102167.59;5277276;27;20446;-75
2024/04/10 09:26:39;;;;;;;8.30;3.60;;;;;;;14.00;58.97;102179.00;5275708;27;20780;-76
2024/04/10 09:29:09;;;;;;;9.70;3.83;;;;;;;14.17;58.39;102181.94;5278024;27;20458;-76
2024/04/10 09:31:35;;;;;;;10.47;3.67;;;;;;;13.93;58.31;102197.25;5277235;27;20944;-74
2024/04/10 09:34:01;;;;;;;6.50;3.47;;;;;;;13.93;58.19;102184.13;5276866;27;20450;-75
2024/04/10 09:36:32;;;;;;;9.83;3.53;;;;;;;14.34;57.84;102179.63;5247301;27;20446;-74
2024/04/10 09:38:59;;;;;;;4.63;3.40;;;;;;;14.54;56.91;102193.06;5246562;27;20346;-75
2024/04/10 09:41:27;;;;;;;6.47;3.30;;;;;;;15.06;56.49;102186.03;5276642;27;20526;-75
2024/04/10 09:43:55;;;;;;;5.93;3.10;;;;;;;15.40;54.73;102188.25;5247376;27;20805;-77
2024/04/10 09:46:22;;;;;;;7.50;3.73;;;;;;;14.86;55.55;102190.13;5277372;27;20501;-76
2024/04/10 09:48:53;;;;;;;7.37;3.40;;;;;;;15.03;55.05;102195.59;5277529;27;20447;-76
2024/04/10 09:51:21;;;;;;;6.20;3.30;;;;;;;15.35;56.64;102203.06;5277105;27;20467;-77
2024/04/10 09:53:47;;;;;;;5.73;3.27;;;;;;;15.66;54.17;102202.56;5277198;27;20574;-75
2024/04/10 09:56:13;;;;;;;5.03;3.10;;;;;;;15.46;54.50;102194.44;5277574;27;20485;-77
2024/04/10 09:58:40;;;;;;;9.10;3.13;;;;;;;16.12;52.98;102202.22;5278110;27;20269;-76
2024/04/10 10:01:06;;;;;;;8.57;3.60;;;;;;;16.05;53.40;102200.41;5278287;27;20223;-76
2024/04/10 10:03:32;;;;;;;7.03;3.30;;;;;;;15.41;53.87;102217.16;5277848;27;20507;-76
2024/04/10 10:06:06;;;;;;;8.40;3.90;;;;;;;15.48;53.73;102208.50;5278575;27;20234;-75
2024/04/10 10:08:36;;;;;;;7.27;3.67;;;;;;;16.04;53.02;102208.28;5276577;27;20264;-75
2024/04/10 10:11:02;;;;;;;6.90;3.30;;;;;;;16.16;52.85;102214.53;5276735;27;20493;-74
2024/04/10 10:13:29;;;;;;;10.20;3.60;;;;;;;16.10;51.78;102216.22;5276965;27;20513;-74
2024/04/10 10:15:58;;;;;;;6.60;3.50;;;;;;;16.89;50.19;102222.22;5275244;27;21023;-76
2024/04/10 10:18:25;;;;;;;9.23;3.87;;;;;;;16.38;50.75;102213.88;5276249;27;20501;-76
2024/04/10 10:21:09;;;;;;;7.43;3.20;;;;;;;16.73;50.08;102215.94;5275737;27;20964;-76
2024/04/10 10:23:36;;;;;;;5.30;3.47;;;;;;;17.40;48.42;102204.97;5275225;27;20518;-75
2024/04/10 10:26:02;;;;;;;8.13;4.20;;;;;;;17.68;49.60;102216.53;5274613;27;21106;-75
2024/04/10 10:28:30;;;;;;;11.23;5.03;;;;;;;18.25;47.14;102215.81;5275802;27;20447;-75
2024/04/10 10:31:05;;;;;;;9.87;4.93;;;;;;;18.20;47.85;102228.13;5276388;27;20254;-77
2024/04/10 10:33:30;;;;;;;7.03;3.97;;;;;;;17.77;47.76;102233.25;5272490;27;20461;-75
2024/04/10 10:35:56;;;;;;;8.77;4.30;;;;;;;17.63;47.37;102231.44;5275990;27;20565;-77
2024/04/10 10:38:21;;;;;;;5.70;2.93;;;;;;;18.18;47.33;102221.94;5275551;27;20231;-74
2024/04/10 10:40:47;;;;;;;8.33;3.73;;;;;;;18.40;46.20;102217.59;5276285;27;20311;-75
2024/04/10 10:43:12;;;;;;;5.47;2.90;;;;;;;18.14;45.25;102226.34;5276103;27;20231;-75
2024/04/10 10:45:37;;;;;;;6.93;3.50;;;;;;;18.40;46.25;102225.50;5276081;27;20231;-76
2024/04/10 10:48:03;;;;;;;7.20;3.37;;;;;;;18.63;44.19;102228.16;5275989;27;20227;-76
2024/04/10 10:50:30;;;;;;;6.93;2.97;;;;;;;17.78;46.29;102237.63;5246178;27;20238;-75
2024/04/10 10:52:56;;;;;;;7.00;3.43;;;;;;;18.84;47.79;102240.47;5246590;27;20589;-75
2024/04/10 10:55:23;;;;;;;12.90;4.00;;;;;;;18.59;46.06;102238.69;5290066;21;20558;-76
2024/04/10 10:57:59;;;;;;;8.47;3.80;;;;;;;17.73;46.04;102253.44;5277820;27;20499;-74
2024/04/10 11:00:29;;;;;;;9.53;3.63;;;;;;;16.96;47.67;102256.53;5277638;27;20450;-74
2024/04/10 11:02:54;;;;;;;6.63;3.20;;;;;;;16.66;47.32;102241.34;5277119;27;21010;-74
2024/04/10 11:05:22;;;;;;;7.40;3.57;;;;;;;16.61;47.44;102249.19;5277104;27;20470;-74
2024/04/10 11:07:56;;;;;;;5.17;2.97;;;;;;;16.51;46.57;102252.63;5277299;27;20748;-75
2024/04/10 11:10:24;;;;;;;10.03;3.30;;;;;;;18.55;46.08;102242.22;5277447;27;20510;-73
2024/04/10 11:13:07;;;;;;;7.90;3.90;;;;;;;18.69;43.03;102259.84;5277262;27;20498;-75
2024/04/10 11:15:43;;;;;;;6.23;3.20;;;;;;;19.42;43.38;102253.63;5277197;27;20470;-74
2024/04/10 11:18:08;;;;;;;6.40;2.90;;;;;;;19.61;41.22;102265.03;5277016;27;20462;-75
2024/04/10 11:20:34;;;;;;;9.00;4.40;;;;;;;20.08;41.15;102250.72;5276581;27;20564;-74